Time;durP1;ratioP1;P1;durP2;ratioP2;P2;SDS_P1;SDS_P2;PMS_P1;PMS_P2;Temp;Humidity;BMP_temperature;BMP_pressure;BME280_temperature;BME280_humidity;BME280_pressure;Samples;Min_cycle;Max_cycle;Signal;HPM_P1;HPM_P2
2022/09/22 00:01:14;;;;;;;7.20;5.85;;;;;;;8.19;100.00;101209.22;5011988;28;20197;-80
2022/09/22 00:03:42;;;;;;;10.57;7.00;;;;;;;8.10;100.00;101211.19;5010406;28;20302;-77
2022/09/22 00:06:12;;;;;;;9.70;6.13;;;;;;;8.09;100.00;101219.25;5009408;28;20203;-79
2022/09/22 00:08:41;;;;;;;6.85;5.80;;;;;;;8.15;100.00;101217.31;5009143;28;20715;-80
2022/09/22 00:11:12;;;;;;;7.95;6.32;;;;;;;8.15;100.00;101217.31;5013778;28;20225;-77
2022/09/22 00:13:40;;;;;;;11.02;6.43;;;;;;;8.14;100.00;101220.94;5006608;28;20210;-77
2022/09/22 00:16:11;;;;;;;6.00;5.38;;;;;;;8.17;100.00;101211.06;5007626;28;21966;-78
2022/09/22 00:18:39;;;;;;;8.23;6.28;;;;;;;8.09;100.00;101212.06;5009690;28;20231;-78
2022/09/22 00:21:08;;;;;;;9.07;5.53;;;;;;;8.17;100.00;101224.47;5011000;28;20195;-78
2022/09/22 00:23:35;;;;;;;9.40;6.22;;;;;;;8.16;100.00;101223.56;5017286;28;20203;-77
2022/09/22 00:26:04;;;;;;;10.27;6.78;;;;;;;8.27;100.00;101228.69;5017852;28;20509;-77
2022/09/22 00:28:31;;;;;;;9.73;7.47;;;;;;;8.23;100.00;101225.22;5013677;28;20240;-77
2022/09/22 00:30:58;;;;;;;8.73;6.93;;;;;;;8.25;100.00;101227.84;5014517;28;20228;-78
2022/09/22 00:33:25;;;;;;;9.40;6.88;;;;;;;8.26;100.00;101225.13;5015750;28;20212;-76
2022/09/22 00:36:00;;;;;;;11.25;7.35;;;;;;;8.28;100.00;101231.34;5015789;28;20600;-77
2022/09/22 00:38:26;;;;;;;9.80;6.65;;;;;;;8.29;100.00;101221.50;5014175;28;20310;-79
2022/09/22 00:40:53;;;;;;;11.88;7.47;;;;;;;8.25;100.00;101222.47;5014637;28;20196;-78
2022/09/22 00:43:24;;;;;;;7.22;6.53;;;;;;;8.17;100.00;101222.66;5018069;28;20217;-77
2022/09/22 00:45:56;;;;;;;11.70;6.90;;;;;;;8.13;100.00;101213.78;5014844;28;20204;-77
2022/09/22 00:48:25;;;;;;;10.48;6.97;;;;;;;8.12;100.00;101227.25;5013255;28;20722;-79
2022/09/22 00:50:53;;;;;;;7.78;6.43;;;;;;;8.15;100.00;101222.69;5012152;28;20273;-79
2022/09/22 00:53:24;;;;;;;11.32;7.15;;;;;;;8.20;100.00;101225.25;5016759;28;20213;-77
2022/09/22 00:55:55;;;;;;;11.68;7.10;;;;;;;8.06;100.00;101213.97;5009305;28;20197;-75
2022/09/22 00:58:27;;;;;;;9.88;6.78;;;;;;;8.04;100.00;101213.13;5017749;28;20227;-74
2022/09/22 01:00:53;;;;;;;8.52;7.35;;;;;;;8.00;100.00;101209.59;5018304;28;20204;-76
2022/09/22 01:03:22;;;;;;;11.95;6.97;;;;;;;7.98;100.00;101216.78;5003907;28;20200;-77
2022/09/22 01:05:52;;;;;;;8.60;6.28;;;;;;;7.95;100.00;101211.50;5019767;28;20293;-75
2022/09/22 01:08:23;;;;;;;10.13;7.20;;;;;;;7.96;100.00;101220.44;5018655;28;20330;-77
2022/09/22 01:10:49;;;;;;;10.65;7.40;;;;;;;7.85;100.00;101213.50;5024272;28;20214;-78
2022/09/22 01:13:26;;;;;;;11.48;6.80;;;;;;;7.73;100.00;101211.97;5036802;28;20207;-79
2022/09/22 01:16:12;;;;;;;9.20;6.90;;;;;;;7.81;100.00;101213.59;5026353;28;20199;-78
2022/09/22 01:18:52;;;;;;;10.25;7.43;;;;;;;7.87;100.00;101216.16;5006842;28;20218;-76
2022/09/22 01:21:27;;;;;;;11.43;7.07;;;;;;;7.94;100.00;101212.44;5014197;28;20207;-77
2022/09/22 01:24:28;;;;;;;8.30;7.38;;;;;;;8.01;100.00;101202.47;5012044;28;20262;-76
2022/09/22 01:27:24;;;;;;;8.98;8.07;;;;;;;7.99;100.00;101201.59;5004639;28;20207;-75
2022/09/22 01:30:24;;;;;;;9.90;6.63;;;;;;;7.96;100.00;101207.94;5010736;28;20238;-76
2022/09/22 01:33:12;;;;;;;10.93;7.13;;;;;;;7.98;100.00;101195.34;5007720;28;20210;-78
2022/09/22 01:35:48;;;;;;;10.20;6.82;;;;;;;7.81;100.00;101203.75;5013578;28;20208;-77
2022/09/22 01:38:25;;;;;;;8.05;6.55;;;;;;;7.81;100.00;101202.88;5015858;28;20218;-76
2022/09/22 01:40:56;;;;;;;8.50;6.60;;;;;;;7.75;100.00;101203.88;5013747;28;20196;-77
2022/09/22 01:43:32;;;;;;;8.68;5.72;;;;;;;7.69;100.00;101201.34;5013858;28;20189;-79
2022/09/22 01:46:01;;;;;;;8.10;5.93;;;;;;;7.71;100.00;101205.75;5012372;28;20206;-79
2022/09/22 01:48:32;;;;;;;9.80;6.72;;;;;;;7.71;100.00;101203.06;5013047;28;20257;-77
2022/09/22 01:51:04;;;;;;;9.63;6.85;;;;;;;7.67;100.00;101200.50;5014007;28;20220;-77
2022/09/22 01:53:36;;;;;;;7.30;6.18;;;;;;;7.60;100.00;101194.38;5013556;28;20199;-77
2022/09/22 01:56:07;;;;;;;5.85;5.25;;;;;;;7.50;100.00;101193.66;5005556;28;20646;-77
2022/09/22 01:58:38;;;;;;;7.15;5.80;;;;;;;7.47;100.00;101192.84;5015095;28;20225;-76
2022/09/22 02:01:08;;;;;;;8.85;6.38;;;;;;;7.53;100.00;101187.38;5015469;28;20531;-77
2022/09/22 02:03:40;;;;;;;9.98;5.97;;;;;;;7.36;100.00;101186.81;5012013;28;20631;-77
2022/09/22 02:06:12;;;;;;;8.50;5.30;;;;;;;7.38;100.00;101193.91;5010202;28;20213;-77
2022/09/22 02:08:45;;;;;;;6.68;5.43;;;;;;;7.31;100.00;101186.91;5004509;28;20247;-76
2022/09/22 02:11:15;;;;;;;7.63;5.68;;;;;;;7.35;100.00;101198.44;5012000;28;20218;-78
2022/09/22 02:13:42;;;;;;;7.43;5.70;;;;;;;7.32;100.00;101181.50;5013991;28;20325;-79
2022/09/22 02:16:10;;;;;;;7.20;5.85;;;;;;;7.32;100.00;101180.63;5011166;28;20732;-79
2022/09/22 02:18:45;;;;;;;7.25;5.35;;;;;;;7.26;100.00;101178.09;5005623;28;20215;-76
2022/09/22 02:21:12;;;;;;;5.88;5.00;;;;;;;7.22;100.00;101182.59;5013886;28;20635;-78
2022/09/22 02:23:38;;;;;;;9.43;5.85;;;;;;;7.25;100.00;101179.84;5014278;28;20212;-78
2022/09/22 02:26:06;;;;;;;9.18;6.30;;;;;;;7.24;100.00;101183.47;5009012;28;20293;-77
2022/09/22 02:28:37;;;;;;;11.90;5.90;;;;;;;7.19;100.00;101182.69;5011218;28;20227;-77
2022/09/22 02:31:06;;;;;;;7.65;5.80;;;;;;;7.16;100.00;101182.72;5012302;28;20295;-78
2022/09/22 02:33:36;;;;;;;6.93;5.45;;;;;;;7.08;100.00;101187.34;5011072;28;20203;-77
2022/09/22 02:36:18;;;;;;;8.15;5.60;;;;;;;7.02;100.00;101185.66;5020954;28;20198;-75
2022/09/22 02:38:52;;;;;;;9.18;6.05;;;;;;;7.00;100.00;101187.47;5018976;28;20222;-75
2022/09/22 02:41:27;;;;;;;6.47;5.50;;;;;;;6.86;100.00;101185.03;5017977;28;20198;-75
2022/09/22 02:44:00;;;;;;;6.60;5.60;;;;;;;6.87;100.00;101176.13;5021896;28;20202;-76
2022/09/22 02:46:32;;;;;;;15.48;6.45;;;;;;;6.82;100.00;101169.94;5010621;28;20199;-77
2022/09/22 02:49:03;;;;;;;10.77;5.90;;;;;;;6.75;100.00;101170.94;5020529;28;20274;-76
2022/09/22 02:51:33;;;;;;;10.98;6.00;;;;;;;6.78;100.00;101170.88;5026941;28;20206;-77
2022/09/22 02:54:00;;;;;;;6.45;5.03;;;;;;;6.74;100.00;101171.88;5028051;28;20207;-76
2022/09/22 02:56:27;;;;;;;5.95;5.35;;;;;;;6.67;100.00;101172.88;5032766;28;20225;-77
2022/09/22 02:58:55;;;;;;;7.82;6.07;;;;;;;6.58;100.00;101165.00;5038308;28;20209;-82
2022/09/22 03:01:21;;;;;;;5.47;4.88;;;;;;;6.62;100.00;101161.38;5035842;22;20229;-80
2022/09/22 03:04:38;;;;;;;8.52;6.03;;;;;;;6.52;100.00;101160.66;5017344;28;20251;-80
2022/09/22 03:07:06;;;;;;;6.45;5.60;;;;;;;6.66;100.00;101152.38;5014835;28;20216;-79
2022/09/22 03:09:33;;;;;;;6.40;5.55;;;;;;;6.60;100.00;101153.38;5016822;28;20249;-79
2022/09/22 03:11:59;;;;;;;8.40;6.00;;;;;;;6.64;100.00;101154.19;5016017;28;20231;-79
2022/09/22 03:14:26;;;;;;;7.00;5.90;;;;;;;6.72;100.00;101148.72;5016648;28;20187;-78
2022/09/22 03:16:53;;;;;;;7.30;5.88;;;;;;;6.73;100.00;101166.53;5002006;28;20279;-77
2022/09/22 03:19:19;;;;;;;9.98;6.15;;;;;;;6.82;100.00;101159.22;4998065;28;20227;-77
2022/09/22 03:21:46;;;;;;;8.60;6.70;;;;;;;6.95;100.00;101159.91;5000784;28;20294;-75
2022/09/22 03:24:14;;;;;;;7.60;6.40;;;;;;;6.93;100.00;101158.16;5001262;28;20298;-78
2022/09/22 03:26:40;;;;;;;7.10;5.72;;;;;;;6.93;100.00;101160.84;5004307;28;20203;-77
2022/09/22 03:29:06;;;;;;;8.80;5.85;;;;;;;6.81;100.00;101156.59;5001880;28;20231;-77
2022/09/22 03:31:33;;;;;;;10.05;6.70;;;;;;;6.81;100.00;101153.91;5003072;28;20249;-77
2022/09/22 03:34:00;;;;;;;8.70;6.18;;;;;;;6.86;100.00;101152.03;5000890;28;20307;-76
2022/09/22 03:36:26;;;;;;;9.20;6.80;;;;;;;6.87;100.00;101146.66;5006260;28;20306;-77
2022/09/22 03:38:53;;;;;;;8.32;6.38;;;;;;;6.71;100.00;101147.81;4997365;28;20373;-79
2022/09/22 03:41:20;;;;;;;7.30;6.30;;;;;;;6.72;100.00;101138.91;4992865;28;20202;-80
2022/09/22 03:43:47;;;;;;;9.05;7.18;;;;;;;6.65;100.00;101151.50;4993739;28;20199;-77
2022/09/22 03:46:13;;;;;;;9.10;6.50;;;;;;;6.64;100.00;101147.03;4988453;28;20216;-78
2022/09/22 03:48:40;;;;;;;12.32;9.27;;;;;;;6.59;100.00;101142.69;4994172;28;20286;-76
2022/09/22 03:51:07;;;;;;;9.93;7.93;;;;;;;6.64;100.00;101141.69;4996483;28;22195;-77
2022/09/22 03:53:33;;;;;;;9.05;7.07;;;;;;;6.72;100.00;101152.28;4993844;28;20199;-78
2022/09/22 03:56:10;;;;;;;8.05;6.40;;;;;;;6.75;100.00;101151.34;4991098;28;20939;-77
2022/09/22 03:58:39;;;;;;;8.35;6.28;;;;;;;6.67;100.00;101147.00;4992941;28;20716;-78
2022/09/22 04:01:07;;;;;;;11.52;7.50;;;;;;;6.68;100.00;101154.13;5000433;28;20211;-78
2022/09/22 04:03:34;;;;;;;8.13;6.53;;;;;;;6.76;100.00;101150.41;5008899;28;20231;-78
2022/09/22 04:06:01;;;;;;;11.43;6.90;;;;;;;6.79;100.00;101155.75;5017191;28;20200;-76
2022/09/22 04:08:28;;;;;;;7.95;7.05;;;;;;;6.71;100.00;101152.28;5000992;28;20221;-78
2022/09/22 04:10:56;;;;;;;8.15;6.65;;;;;;;6.74;100.00;101152.22;5000587;28;20262;-78
2022/09/22 04:13:23;;;;;;;7.78;5.97;;;;;;;6.76;100.00;101140.63;4997402;28;20199;-78
2022/09/22 04:15:51;;;;;;;7.95;6.07;;;;;;;6.76;100.00;101154.00;4992914;28;20207;-77
2022/09/22 04:18:17;;;;;;;8.07;6.28;;;;;;;6.76;100.00;101154.00;4996010;28;20226;-76
2022/09/22 04:20:44;;;;;;;11.75;5.82;;;;;;;6.57;100.00;101150.75;4998353;28;20263;-74
2022/09/22 04:23:11;;;;;;;8.15;5.72;;;;;;;6.64;100.00;101143.50;4998377;28;20207;-76
2022/09/22 04:25:37;;;;;;;7.35;6.65;;;;;;;6.66;100.00;101145.22;4995000;28;20219;-75
2022/09/22 04:28:04;;;;;;;7.18;6.00;;;;;;;6.67;100.00;101141.66;5000951;28;20207;-76
2022/09/22 04:30:32;;;;;;;12.35;7.25;;;;;;;6.61;100.00;101148.91;4995162;28;20599;-75
2022/09/22 04:33:00;;;;;;;7.78;6.10;;;;;;;6.61;100.00;101141.75;4996827;28;20287;-74
2022/09/22 04:35:28;;;;;;;7.40;6.60;;;;;;;6.55;100.00;101147.19;4996141;28;20203;-74
2022/09/22 04:37:55;;;;;;;9.00;7.15;;;;;;;6.58;100.00;101143.59;4994204;28;20207;-74
2022/09/22 04:40:22;;;;;;;21.75;15.32;;;;;;;6.61;100.00;101141.75;5016956;23;20228;-77
2022/09/22 04:42:49;;;;;;;18.38;13.70;;;;;;;6.62;100.00;101139.94;5013061;28;20896;-79
2022/09/22 04:45:16;;;;;;;35.72;24.75;;;;;;;6.66;100.00;101139.88;5012788;28;20541;-77
2022/09/22 04:47:44;;;;;;;12.55;8.20;;;;;;;6.60;100.00;101139.09;5020107;28;20209;-78
2022/09/22 04:50:12;;;;;;;17.33;11.88;;;;;;;6.58;100.00;101141.81;5024772;28;20202;-79
2022/09/22 04:52:39;;;;;;;15.15;10.50;;;;;;;6.55;100.00;101143.66;5014388;28;20202;-78
2022/09/22 04:55:07;;;;;;;9.18;7.50;;;;;;;6.51;100.00;101141.94;5018158;28;20207;-78
2022/09/22 04:57:33;;;;;;;11.55;6.80;;;;;;;6.45;100.00;101143.81;4998666;28;20246;-79
2022/09/22 05:00:00;;;;;;;11.40;6.20;;;;;;;6.51;100.00;101139.25;5030407;28;20216;-80
2022/09/22 05:02:26;;;;;;;8.38;6.80;;;;;;;6.52;100.00;101131.22;5026705;28;20197;-79
2022/09/22 05:04:53;;;;;;;8.75;6.53;;;;;;;6.55;100.00;101141.84;5019252;28;20209;-78
2022/09/22 05:07:21;;;;;;;9.85;7.90;;;;;;;6.55;100.00;101144.53;5008747;28;20207;-80
2022/09/22 05:09:47;;;;;;;9.13;7.07;;;;;;;6.43;100.00;101144.75;5013738;28;20199;-77
2022/09/22 05:12:14;;;;;;;11.60;6.90;;;;;;;6.40;100.00;101145.69;5012672;28;20222;-79
2022/09/22 05:14:41;;;;;;;8.20;6.90;;;;;;;6.47;100.00;101150.00;5015090;28;20580;-76
2022/09/22 05:17:07;;;;;;;9.45;7.40;;;;;;;6.41;100.00;101150.09;5010557;28;20215;-78
2022/09/22 05:19:34;;;;;;;7.00;6.30;;;;;;;6.38;100.00;101154.66;5019029;28;20210;-76
2022/09/22 05:22:00;;;;;;;8.35;6.93;;;;;;;6.37;100.00;101160.88;5024750;28;20218;-76
2022/09/22 05:24:33;;;;;;;7.45;6.10;;;;;;;6.35;100.00;101160.91;5020696;28;20209;-75
2022/09/22 05:26:59;;;;;;;7.60;6.57;;;;;;;6.40;100.00;101161.72;5014040;28;20207;-79
2022/09/22 05:29:26;;;;;;;6.43;5.55;;;;;;;6.44;100.00;101159.88;5010713;28;20257;-76
2022/09/22 05:31:53;;;;;;;7.35;6.40;;;;;;;6.42;100.00;101162.59;5015716;28;20222;-78
2022/09/22 05:34:19;;;;;;;8.73;6.72;;;;;;;6.42;100.00;101165.28;5009370;28;20286;-75
2022/09/22 05:36:45;;;;;;;150.30;83.35;;;;;;;6.56;100.00;101169.53;5016829;28;20668;-75
2022/09/22 05:39:12;;;;;;;25.70;17.63;;;;;;;6.64;100.00;101170.25;5019806;28;20200;-79
2022/09/22 05:41:40;;;;;;;10.48;8.00;;;;;;;6.65;100.00;101164.00;5012009;28;20224;-76
2022/09/22 05:44:06;;;;;;;10.70;7.22;;;;;;;6.66;100.00;101174.66;5011967;28;20203;-78
2022/09/22 05:46:33;;;;;;;10.52;7.15;;;;;;;6.81;100.00;101176.22;5017616;28;20209;-75
2022/09/22 05:48:59;;;;;;;7.18;5.97;;;;;;;6.80;100.00;101171.75;5023300;28;20206;-78
2022/09/22 05:51:26;;;;;;;12.55;7.10;;;;;;;6.84;100.00;101175.28;5021012;28;20299;-77
2022/09/22 05:53:52;;;;;;;7.00;6.05;;;;;;;7.01;100.00;101178.53;5017032;28;20270;-78
2022/09/22 05:56:19;;;;;;;7.32;6.15;;;;;;;7.13;100.00;101165.84;5021578;28;20270;-77
2022/09/22 05:58:48;;;;;;;9.50;6.07;;;;;;;7.22;100.00;101176.38;5035936;28;20206;-77
2022/09/22 06:01:14;;;;;;;8.85;6.43;;;;;;;7.39;100.00;101176.91;5033821;28;20270;-77
2022/09/22 06:03:41;;;;;;;8.18;6.70;;;;;;;7.60;100.00;101172.94;5035893;28;20201;-77
2022/09/22 06:06:08;;;;;;;11.68;6.90;;;;;;;7.81;100.00;101168.03;5031594;28;20197;-76
2022/09/22 06:08:34;;;;;;;8.98;6.97;;;;;;;8.02;100.00;101164.84;5015233;28;20750;-79
2022/09/22 06:11:01;;;;;;;9.73;6.95;;;;;;;8.29;100.00;101162.44;5015787;28;20329;-78
2022/09/22 06:13:28;;;;;;;7.10;6.30;;;;;;;8.54;100.00;101166.31;5023924;28;20211;-75
2022/09/22 06:15:57;;;;;;;10.45;6.50;;;;;;;8.69;100.00;101164.19;5017168;28;20673;-77
2022/09/22 06:18:25;;;;;;;7.68;5.88;;;;;;;8.88;100.00;101162.78;5013650;28;20261;-75
2022/09/22 06:20:53;;;;;;;9.48;7.05;;;;;;;8.95;100.00;101150.97;5016362;28;20222;-77
2022/09/22 06:23:19;;;;;;;10.35;6.75;;;;;;;9.20;100.00;101161.03;5016928;28;20204;-76
2022/09/22 06:25:45;;;;;;;8.30;6.78;;;;;;;9.46;100.00;101148.69;5015788;28;20205;-75
2022/09/22 06:28:14;;;;;;;14.57;6.82;;;;;;;9.67;100.00;101145.34;5010405;28;20281;-77
2022/09/22 06:30:41;;;;;;;12.93;5.20;;;;;;;9.98;100.00;101147.13;5013913;28;20237;-79
2022/09/22 06:33:10;;;;;;;8.27;5.82;;;;;;;10.15;100.00;101139.41;5011541;28;20202;-75
2022/09/22 06:35:37;;;;;;;11.10;6.78;;;;;;;10.43;100.00;101131.34;5012854;28;20665;-77
2022/09/22 06:38:05;;;;;;;13.93;6.35;;;;;;;10.60;100.00;101135.25;5012257;28;20206;-76
2022/09/22 06:40:32;;;;;;;15.52;6.97;;;;;;;10.80;100.00;101134.59;5014838;28;20238;-76
2022/09/22 06:43:00;;;;;;;9.68;5.82;;;;;;;11.11;100.00;101136.22;5014924;28;20550;-76
2022/09/22 06:45:30;;;;;;;7.70;6.65;;;;;;;11.25;100.00;101136.59;5009903;28;20205;-77
2022/09/22 06:47:58;;;;;;;8.57;6.03;;;;;;;11.61;100.00;101136.16;5012063;28;20283;-75
2022/09/22 06:50:29;;;;;;;9.15;6.57;;;;;;;12.15;100.00;101128.69;5011710;28;20219;-76
2022/09/22 06:52:58;;;;;;;9.85;6.35;;;;;;;12.51;100.00;101129.88;5013702;28;20778;-75
2022/09/22 06:55:24;;;;;;;10.30;6.45;;;;;;;12.85;100.00;101132.97;5017316;28;20210;-75
2022/09/22 06:57:51;;;;;;;6.78;5.32;;;;;;;13.04;100.00;101131.22;5016597;28;20214;-75
2022/09/22 07:00:18;;;;;;;9.63;5.57;;;;;;;13.60;100.00;101131.47;5012369;28;20225;-75
2022/09/22 07:02:45;;;;;;;8.90;5.05;;;;;;;13.88;96.50;101131.91;5015607;28;20221;-75
2022/09/22 07:05:13;;;;;;;9.88;5.40;;;;;;;14.36;93.38;101132.34;5011634;28;20201;-76
2022/09/22 07:07:41;;;;;;;12.20;4.93;;;;;;;14.71;87.28;101136.00;5010105;28;20865;-76
2022/09/22 07:10:08;;;;;;;10.10;5.60;;;;;;;15.29;83.49;101132.09;5011801;28;20198;-76
2022/09/22 07:12:35;;;;;;;9.05;5.45;;;;;;;15.70;80.33;101130.81;5004071;28;20615;-76
2022/09/22 07:15:01;;;;;;;12.48;5.10;;;;;;;16.31;75.59;101131.94;5011615;28;20206;-77
2022/09/22 07:17:31;;;;;;;7.97;4.57;;;;;;;16.62;71.20;101137.34;5012981;28;20234;-78
2022/09/22 07:19:58;;;;;;;8.70;4.57;;;;;;;17.28;68.49;101137.94;5012670;28;20206;-76
2022/09/22 07:22:25;;;;;;;7.10;5.05;;;;;;;17.52;65.32;101130.09;5010253;28;20567;-76
2022/09/22 07:24:53;;;;;;;8.15;5.00;;;;;;;17.92;63.62;101128.44;5008922;28;20301;-77
2022/09/22 07:27:25;;;;;;;6.85;5.00;;;;;;;17.77;61.85;101125.81;5012411;28;20207;-76
2022/09/22 07:29:53;;;;;;;8.00;5.18;;;;;;;17.89;62.18;101127.78;5010188;28;20194;-77
2022/09/22 07:32:20;;;;;;;7.60;4.93;;;;;;;18.83;57.98;101125.19;5013327;28;20236;-76
2022/09/22 07:34:47;;;;;;;8.30;5.50;;;;;;;19.38;55.69;101115.00;5014912;28;20492;-76
2022/09/22 07:37:14;;;;;;;6.77;3.90;;;;;;;19.52;53.40;101116.75;5015411;28;20517;-78
2022/09/22 07:39:42;;;;;;;6.43;4.27;;;;;;;19.35;54.04;101120.69;5013878;28;20831;-76
2022/09/22 07:42:09;;;;;;;6.70;4.37;;;;;;;19.56;52.35;101118.28;5014773;28;21014;-78
2022/09/22 07:48:34;;;;;;;13.80;4.40;;;;;;;20.37;50.01;101114.19;5015940;28;20541;-76
2022/09/22 07:50:07;;;;;;;7.90;4.30;;;;;;;19.91;50.97;101126.69;5000841;28;20995;-76
2022/09/22 07:52:34;;;;;;;4.27;3.53;;;;;;;20.79;49.36;101125.63;5016563;28;20567;-77
2022/09/22 07:55:00;;;;;;;4.70;4.00;;;;;;;21.04;48.82;101121.84;5013532;28;20466;-76
2022/09/22 07:57:32;;;;;;;9.80;4.27;;;;;;;21.73;46.97;101119.16;5015015;28;20548;-77
2022/09/22 07:59:59;;;;;;;4.90;4.33;;;;;;;21.35;46.68;101131.28;5014702;28;20461;-77
2022/09/22 08:02:28;;;;;;;11.23;5.40;;;;;;;21.06;47.67;101129.97;5019289;28;20884;-77
2022/09/22 08:05:02;;;;;;;8.30;4.10;;;;;;;21.87;46.15;101123.50;5022284;28;20464;-76
2022/09/22 08:07:34;;;;;;;6.80;4.10;;;;;;;22.23;45.11;101125.13;5020336;28;20449;-78
2022/09/22 08:10:01;;;;;;;4.10;3.60;;;;;;;22.99;43.20;101122.38;5022733;28;20464;-75
2022/09/22 08:12:29;;;;;;;7.97;4.43;;;;;;;23.64;41.50;101122.22;5018422;28;20571;-76
2022/09/22 08:14:57;;;;;;;9.30;4.07;;;;;;;24.15;40.46;101124.06;5014326;28;20469;-76
2022/09/22 08:17:23;;;;;;;5.70;3.80;;;;;;;24.59;39.33;101124.63;5014335;28;20467;-77
2022/09/22 08:19:50;;;;;;;7.50;4.10;;;;;;;24.68;39.40;101123.75;5005548;28;20465;-78
2022/09/22 08:22:17;;;;;;;6.47;4.20;;;;;;;25.17;38.03;101126.50;5015081;28;20476;-77
2022/09/22 08:24:44;;;;;;;5.70;3.87;;;;;;;25.48;36.98;101127.19;5015215;28;20540;-78
2022/09/22 08:27:11;;;;;;;4.70;3.83;;;;;;;25.80;36.99;101124.06;5014729;28;20507;-78
2022/09/22 08:29:39;;;;;;;4.73;3.60;;;;;;;26.32;36.82;101122.66;5011928;28;20454;-76
2022/09/22 08:32:05;;;;;;;6.10;3.20;;;;;;;26.75;35.67;101124.72;5012684;28;20546;-77
2022/09/22 08:34:32;;;;;;;6.17;3.47;;;;;;;25.96;36.19;101114.25;5013864;28;20544;-76
2022/09/22 08:36:59;;;;;;;4.87;3.83;;;;;;;25.81;36.38;101116.63;5016233;28;20456;-76
2022/09/22 08:39:25;;;;;;;4.80;3.30;;;;;;;26.07;36.14;101122.34;5015796;28;20449;-77
2022/09/22 08:42:08;;;;;;;3.57;3.27;;;;;;;26.28;35.17;101126.75;5016927;28;20564;-76
2022/09/22 08:44:40;;;;;;;7.10;6.40;;;;;;;26.37;35.14;101118.41;5031822;28;20433;-77
2022/09/22 08:51:50;;;;;;;6.87;4.93;;;;;;;26.11;35.00;101121.03;5014283;28;20484;-77
2022/09/22 08:53:05;;;;;;;4.17;2.67;;;;;;;27.66;33.85;101135.50;5013868;28;20480;-75
2022/09/22 08:55:32;;;;;;;5.30;3.27;;;;;;;26.89;34.64;101134.34;5021559;28;20472;-76
2022/09/22 08:58:06;;;;;;;5.63;3.33;;;;;;;26.93;33.65;101129.34;5014358;28;21446;-78
2022/09/22 09:00:40;;;;;;;7.00;2.43;;;;;;;27.80;33.46;101133.16;5013270;28;20864;-76
2022/09/22 09:03:21;;;;;;;4.90;2.60;;;;;;;28.11;32.78;101124.31;5009888;28;20467;-77
2022/09/22 09:05:59;;;;;;;4.70;3.03;;;;;;;27.74;32.84;101133.81;5013089;28;20982;-77
2022/09/22 09:08:50;;;;;;;4.97;2.40;;;;;;;29.10;30.89;101127.22;5013820;28;20520;-76
2022/09/22 09:11:30;;;;;;;7.90;3.10;;;;;;;28.80;31.54;101127.84;5015726;28;20889;-78
2022/09/22 09:14:12;;;;;;;7.37;3.30;;;;;;;29.99;30.78;101132.81;5002902;28;20457;-76
2022/09/22 09:16:47;;;;;;;6.37;3.30;;;;;;;30.77;29.17;101128.25;5011799;28;20461;-76
2022/09/22 09:19:18;;;;;;;3.00;2.23;;;;;;;30.36;29.65;101128.50;5012658;28;20461;-77
2022/09/22 09:21:50;;;;;;;2.93;2.20;;;;;;;30.54;29.27;101119.88;5012279;28;20477;-77
2022/09/22 09:24:25;;;;;;;3.40;1.90;;;;;;;31.21;28.64;101127.59;5013210;28;20462;-76
2022/09/22 09:26:52;;;;;;;5.57;3.20;;;;;;;29.59;30.33;101120.72;5014406;28;20503;-77
2022/09/22 09:29:24;;;;;;;3.57;2.43;;;;;;;30.99;29.48;101120.13;5014752;28;20447;-77
2022/09/22 09:31:55;;;;;;;4.27;2.40;;;;;;;32.00;28.04;101118.81;5011881;28;20473;-77
2022/09/22 09:34:27;;;;;;;4.07;2.20;;;;;;;32.08;28.33;101124.25;5013005;28;20458;-78
2022/09/22 09:37:06;;;;;;;3.77;2.00;;;;;;;32.93;27.47;101116.28;5014091;28;20524;-77
2022/09/22 09:39:34;;;;;;;3.17;2.23;;;;;;;33.41;26.60;101120.16;5015493;28;20484;-78
2022/09/22 09:42:16;;;;;;;3.90;2.43;;;;;;;32.35;27.45;101119.03;5012828;28;20481;-76
2022/09/22 09:44:44;;;;;;;4.47;1.93;;;;;;;32.53;26.84;101119.50;5015244;28;21033;-75
2022/09/22 09:47:22;;;;;;;2.70;1.90;;;;;;;33.06;26.12;101121.16;5000432;28;20452;-76
2022/09/22 09:49:50;;;;;;;2.90;1.80;;;;;;;33.63;26.37;101117.38;5014260;28;20980;-77
2022/09/22 09:52:17;;;;;;;2.63;2.10;;;;;;;33.22;25.63;101109.72;5013129;28;20580;-76
2022/09/22 09:54:46;;;;;;;3.73;1.63;;;;;;;33.00;26.52;101106.06;5012844;28;20461;-78
2022/09/22 09:57:14;;;;;;;2.83;1.90;;;;;;;32.82;25.89;101104.59;5013186;28;20536;-77
2022/09/22 10:02:31;;;;;;;2.60;2.00;;;;;;;33.18;25.92;101108.41;5015080;28;20413;-78
2022/09/22 10:05:01;;;;;;;2.57;1.73;;;;;;;33.62;25.43;101110.91;5013486;28;20460;-77
2022/09/22 10:07:30;;;;;;;4.33;2.20;;;;;;;32.27;26.72;101094.06;5012081;28;20533;-82
2022/09/22 10:10:31;;;;;;;3.80;2.20;;;;;;;33.98;25.66;101093.06;5013589;28;20475;-78
2022/09/22 10:13:19;;;;;;;4.87;3.70;;;;;;;33.68;26.04;101098.06;5009610;28;20479;-77
2022/09/22 10:16:01;;;;;;;4.00;2.40;;;;;;;33.50;26.03;101097.69;5005166;28;20453;-73
2022/09/22 10:18:34;;;;;;;3.37;1.70;;;;;;;34.87;25.40;101091.25;5012361;28;20801;-75
2022/09/22 10:21:05;;;;;;;4.30;2.10;;;;;;;34.78;25.54;101086.94;5012548;28;20484;-73
2022/09/22 10:23:33;;;;;;;3.33;1.50;;;;;;;35.13;24.22;101084.84;5014700;28;20810;-75
2022/09/22 10:26:20;;;;;;;2.70;1.47;;;;;;;35.00;24.75;101094.06;4998848;28;20484;-74
2022/09/22 10:29:06;;;;;;;2.43;1.50;;;;;;;34.59;24.73;101071.81;5014192;28;20429;-74
2022/09/22 10:31:34;;;;;;;2.60;1.30;;;;;;;34.71;24.63;101064.53;5011546;28;20492;-73
2022/09/22 10:34:00;;;;;;;2.70;1.53;;;;;;;35.48;24.72;101064.97;5012761;28;20482;-75
2022/09/22 10:36:29;;;;;;;2.97;1.50;;;;;;;36.01;23.83;101067.69;4995320;28;20460;-73
2022/09/22 10:38:56;;;;;;;1.83;1.47;;;;;;;35.75;23.25;101070.56;5013653;28;20473;-73
2022/09/22 10:41:27;;;;;;;1.70;1.40;;;;;;;35.75;23.14;101067.75;5041463;23;20488;-70
2022/09/22 10:43:59;;;;;;;2.43;1.30;;;;;;;36.43;23.21;101062.56;5034411;28;20503;-70
2022/09/22 10:46:51;;;;;;;2.37;1.30;;;;;;;36.29;23.45;101056.13;5033391;28;20445;-71
2022/09/22 10:49:31;;;;;;;1.97;1.23;;;;;;;37.60;22.29;101055.59;5034076;28;20440;-72
2022/09/22 10:52:08;;;;;;;2.30;1.27;;;;;;;36.55;22.39;101054.28;5032544;28;20480;-70
2022/09/22 10:54:57;;;;;;;2.10;1.10;;;;;;;36.59;22.49;101047.16;5034220;28;20945;-72
2022/09/22 10:57:48;;;;;;;1.80;1.10;;;;;;;34.83;23.54;101043.25;5033416;28;20889;-72
2022/09/22 11:00:17;;;;;;;1.47;0.90;;;;;;;35.17;23.39;101040.50;5033683;28;20461;-70
2022/09/22 11:03:20;;;;;;;2.40;1.10;;;;;;;33.91;22.99;101053.06;5015972;28;20873;-70
2022/09/22 11:12:17;;;;;;;2.23;0.90;;;;;;;30.50;25.71;101038.78;4940749;28;20487;-71
2022/09/22 11:15:15;;;;;;;1.83;1.00;;;;;;;31.79;25.07;101022.06;4961946;28;20459;-70
2022/09/22 11:18:03;;;;;;;4.13;1.20;;;;;;;32.55;24.24;101025.38;4967570;28;20834;-72
2022/09/22 11:20:36;;;;;;;3.10;1.13;;;;;;;33.81;23.57;101016.28;4927448;29;20445;-71
2022/09/22 11:23:39;;;;;;;1.73;1.10;;;;;;;32.96;23.45;101029.41;4918575;29;20852;-72
2022/09/22 11:26:31;;;;;;;4.33;1.00;;;;;;;33.74;23.14;101013.44;4897178;29;20450;-71
2022/09/22 11:29:31;;;;;;;1.70;1.10;;;;;;;35.29;21.92;101011.59;4898440;29;20466;-70
2022/09/22 11:32:08;;;;;;;1.60;1.00;;;;;;;35.80;21.53;101001.59;4894895;29;20478;-73
2022/09/22 11:34:49;;;;;;;2.67;1.00;;;;;;;36.18;20.87;101011.97;4906691;29;20490;-70
2022/09/22 11:37:31;;;;;;;1.93;0.80;;;;;;;35.62;21.26;101004.25;4914184;29;20481;-72
2022/09/22 11:40:31;;;;;;;1.97;0.87;;;;;;;37.16;20.55;101007.00;4902685;29;20469;-71
2022/09/22 11:43:12;;;;;;;2.03;0.87;;;;;;;37.20;20.36;100997.88;4925165;28;20973;-70
2022/09/22 11:45:48;;;;;;;1.30;1.00;;;;;;;34.74;22.03;100990.53;4969818;28;20467;-71
2022/09/22 11:48:31;;;;;;;3.03;1.03;;;;;;;33.07;22.90;100984.22;4969239;28;20467;-72
2022/09/22 11:51:40;;;;;;;1.10;0.80;;;;;;;32.29;23.72;100981.34;4971627;28;21240;-70
2022/09/22 11:54:25;;;;;;;1.80;0.80;;;;;;;33.71;23.10;100973.88;4965093;28;20490;-73
2022/09/22 11:56:55;;;;;;;2.27;0.80;;;;;;;35.06;21.30;100972.84;4977752;28;21018;-70